This is the latest recevied weather packets stored in our database for station/object OE6ACM-10. If no packets are shown the sender has not sent any weather packets the latest 10 day(s).
| Time | Temp. | Humidity | Pressure | Rain* | Wind** | Luminosity | Snow |
|---|---|---|---|---|---|---|---|
| 1787585121 | 34.44° C | 100% | 928.9 hPa | - | - | - | - |
| 1787584821 | 35.56° C | 100% | 928.9 hPa | - | - | - | - |
| 1787584521 | 36.67° C | 100% | 928.9 hPa | - | - | - | - |
| 1787584221 | 35° C | 100% | 929 hPa | - | - | - | - |
| 1787583921 | 35.56° C | 100% | 929 hPa | - | - | - | - |
| 1787583621 | 37.78° C | 83% | 929.1 hPa | - | - | - | - |
| 1787583321 | 41.67° C | 72% | 929.2 hPa | - | - | - | - |
| 1787583021 | 41.67° C | 74% | 929.2 hPa | - | - | - | - |
| 1787582721 | 40.56° C | 84% | 929.3 hPa | - | - | - | - |
| 1787582421 | 41.11° C | 78% | 929.3 hPa | - | - | - | - |
| 1787582121 | 42.78° C | 76% | 929.2 hPa | - | - | - | - |
| 1787581821 | 41.67° C | 89% | 929.3 hPa | - | - | - | - |
| 1787581521 | 40° C | 100% | 929.3 hPa | - | - | - | - |
| 1787581221 | 38.33° C | 100% | 929.3 hPa | - | - | - | - |
| 1787580921 | 36.11° C | 100% | 929.3 hPa | - | - | - | - |
| 1787580621 | 36.11° C | 100% | 929.4 hPa | - | - | - | - |
| 1787580321 | 35.56° C | 100% | 929.4 hPa | - | - | - | - |
| 1787580021 | 32.78° C | 100% | 929.5 hPa | - | - | - | - |
| 1787579721 | 31.67° C | 100% | 929.6 hPa | - | - | - | - |
| 1787579421 | 31.67° C | 100% | 929.6 hPa | - | - | - | - |
| 1787579121 | 31.11° C | 100% | 929.6 hPa | - | - | - | - |
| 1787578821 | 31.67° C | 100% | 929.7 hPa | - | - | - | - |
| 1787578521 | 31.67° C | 100% | 929.7 hPa | - | - | - | - |
| 1787578221 | 32.78° C | 100% | 929.7 hPa | - | - | - | - |
| 1787577921 | 33.33° C | 100% | 929.7 hPa | - | - | - | - |
* Rain since midnight (hover to see other rain measurements)
** Current wind speed in m/s (hover to see current wind gust speed)